sensor_id;sensor_type;location;lat;lon;timestamp;temperature;humidity
49821;DHT22;36893;52.520;13.450;2023-02-28T00:07:39;19.50;76.40
49821;DHT22;36893;52.520;13.450;2023-02-28T00:17:39;19.50;76.40
49821;DHT22;36893;52.520;13.450;2023-02-28T00:27:40;19.50;76.50
49821;DHT22;36893;52.520;13.450;2023-02-28T00:37:42;19.50;76.40
49821;DHT22;36893;52.520;13.450;2023-02-28T00:47:43;19.50;76.40
49821;DHT22;36893;52.520;13.450;2023-02-28T00:57:44;19.50;76.40
49821;DHT22;36893;52.520;13.450;2023-02-28T01:07:45;19.50;76.40
49821;DHT22;36893;52.520;13.450;2023-02-28T01:17:45;19.50;76.30
49821;DHT22;36893;52.520;13.450;2023-02-28T01:27:46;19.50;77.00
49821;DHT22;36893;52.520;13.450;2023-02-28T01:37:47;19.40;76.20
49821;DHT22;36893;52.520;13.450;2023-02-28T01:47:50;19.40;76.20
49821;DHT22;36893;52.520;13.450;2023-02-28T01:57:56;19.40;76.20
49821;DHT22;36893;52.520;13.450;2023-02-28T02:08:03;19.40;76.20
49821;DHT22;36893;52.520;13.450;2023-02-28T02:18:26;19.40;76.20
49821;DHT22;36893;52.520;13.450;2023-02-28T02:28:56;19.30;76.20
49821;DHT22;36893;52.520;13.450;2023-02-28T02:49:53;19.30;76.20
49821;DHT22;36893;52.520;13.450;2023-02-28T02:59:56;19.30;76.20
49821;DHT22;36893;52.520;13.450;2023-02-28T03:09:57;19.30;76.10
49821;DHT22;36893;52.520;13.450;2023-02-28T03:41:00;19.20;76.10
49821;DHT22;36893;52.520;13.450;2023-02-28T03:51:09;19.20;76.10
49821;DHT22;36893;52.520;13.450;2023-02-28T04:01:16;19.20;76.10
49821;DHT22;36893;52.520;13.450;2023-02-28T04:21:43;19.10;75.90
49821;DHT22;36893;52.520;13.450;2023-02-28T04:31:45;19.20;76.00
49821;DHT22;36893;52.520;13.450;2023-02-28T04:41:45;19.10;75.90
49821;DHT22;36893;52.520;13.450;2023-02-28T04:51:46;19.10;75.90
49821;DHT22;36893;52.520;13.450;2023-02-28T05:01:48;19.10;75.90
49821;DHT22;36893;52.520;13.450;2023-02-28T05:11:49;19.10;75.80
49821;DHT22;36893;52.520;13.450;2023-02-28T05:21:52;19.10;75.80
49821;DHT22;36893;52.520;13.450;2023-02-28T05:31:54;19.10;75.80
49821;DHT22;36893;52.520;13.450;2023-02-28T05:41:55;19.10;75.80
49821;DHT22;36893;52.520;13.450;2023-02-28T05:51:55;19.00;75.70
49821;DHT22;36893;52.520;13.450;2023-02-28T06:01:56;19.10;75.70
49821;DHT22;36893;52.520;13.450;2023-02-28T06:12:02;19.00;75.60
49821;DHT22;36893;52.520;13.450;2023-02-28T06:22:05;19.00;75.60
49821;DHT22;36893;52.520;13.450;2023-02-28T06:32:06;19.00;75.50
49821;DHT22;36893;52.520;13.450;2023-02-28T06:42:06;19.10;75.60
49821;DHT22;36893;52.520;13.450;2023-02-28T06:52:07;19.10;75.60
49821;DHT22;36893;52.520;13.450;2023-02-28T07:02:10;19.20;75.60
49821;DHT22;36893;52.520;13.450;2023-02-28T07:12:10;19.20;74.90
49821;DHT22;36893;52.520;13.450;2023-02-28T07:22:11;19.20;74.60
49821;DHT22;36893;52.520;13.450;2023-02-28T07:32:12;19.20;74.50
49821;DHT22;36893;52.520;13.450;2023-02-28T07:42:12;19.20;74.70
49821;DHT22;36893;52.520;13.450;2023-02-28T07:52:13;19.20;75.00
49821;DHT22;36893;52.520;13.450;2023-02-28T08:02:18;19.20;75.70
49821;DHT22;36893;52.520;13.450;2023-02-28T08:12:19;19.30;76.40
49821;DHT22;36893;52.520;13.450;2023-02-28T08:22:20;19.30;76.50
49821;DHT22;36893;52.520;13.450;2023-02-28T08:32:20;19.40;76.90
49821;DHT22;36893;52.520;13.450;2023-02-28T08:42:21;19.50;76.90
49821;DHT22;36893;52.520;13.450;2023-02-28T08:52:22;19.60;77.10
49821;DHT22;36893;52.520;13.450;2023-02-28T09:02:22;19.70;77.20
49821;DHT22;36893;52.520;13.450;2023-02-28T09:12:24;19.80;77.20
49821;DHT22;36893;52.520;13.450;2023-02-28T09:22:25;19.80;76.30
49821;DHT22;36893;52.520;13.450;2023-02-28T09:32:26;19.50;73.00
49821;DHT22;36893;52.520;13.450;2023-02-28T09:42:33;19.10;70.80
49821;DHT22;36893;52.520;13.450;2023-02-28T09:52:34;18.80;69.00
49821;DHT22;36893;52.520;13.450;2023-02-28T10:02:41;18.50;67.60
49821;DHT22;36893;52.520;13.450;2023-02-28T10:12:48;18.60;67.50
49821;DHT22;36893;52.520;13.450;2023-02-28T10:23:28;18.80;67.40
49821;DHT22;36893;52.520;13.450;2023-02-28T10:33:34;19.00;67.70
49821;DHT22;36893;52.520;13.450;2023-02-28T10:43:36;19.10;68.00
49821;DHT22;36893;52.520;13.450;2023-02-28T10:53:49;19.30;68.30
49821;DHT22;36893;52.520;13.450;2023-02-28T11:03:52;19.40;68.60
49821;DHT22;36893;52.520;13.450;2023-02-28T11:13:57;19.50;68.70
49821;DHT22;36893;52.520;13.450;2023-02-28T11:24:25;19.60;68.90
49821;DHT22;36893;52.520;13.450;2023-02-28T11:34:27;19.70;69.20
49821;DHT22;36893;52.520;13.450;2023-02-28T11:55:21;19.90;69.80
49821;DHT22;36893;52.520;13.450;2023-02-28T12:05:33;20.00;70.20
49821;DHT22;36893;52.520;13.450;2023-02-28T12:36:19;20.20;71.20
49821;DHT22;36893;52.520;13.450;2023-02-28T12:46:32;20.20;71.40
49821;DHT22;36893;52.520;13.450;2023-02-28T13:07:15;20.30;71.90
49821;DHT22;36893;52.520;13.450;2023-02-28T13:17:36;20.30;72.10
49821;DHT22;36893;52.520;13.450;2023-02-28T13:27:39;20.30;72.20
49821;DHT22;36893;52.520;13.450;2023-02-28T13:37:45;20.40;72.60
49821;DHT22;36893;52.520;13.450;2023-02-28T13:48:00;20.40;72.70
49821;DHT22;36893;52.520;13.450;2023-02-28T14:08:34;20.40;73.00
49821;DHT22;36893;52.520;13.450;2023-02-28T14:18:36;20.50;73.00
49821;DHT22;36893;52.520;13.450;2023-02-28T14:39:00;20.60;73.20
49821;DHT22;36893;52.520;13.450;2023-02-28T14:49:06;20.70;73.30
49821;DHT22;36893;52.520;13.450;2023-02-28T14:59:28;20.70;73.40
49821;DHT22;36893;52.520;13.450;2023-02-28T15:09:30;20.70;73.60
49821;DHT22;36893;52.520;13.450;2023-02-28T15:19:34;20.70;73.60
49821;DHT22;36893;52.520;13.450;2023-02-28T15:29:44;20.70;73.70
49821;DHT22;36893;52.520;13.450;2023-02-28T15:39:47;20.80;73.80
49821;DHT22;36893;52.520;13.450;2023-02-28T15:49:59;20.80;73.80
49821;DHT22;36893;52.520;13.450;2023-02-28T16:00:03;20.80;73.90
49821;DHT22;36893;52.520;13.450;2023-02-28T16:10:07;20.80;73.90
49821;DHT22;36893;52.520;13.450;2023-02-28T16:20:27;20.80;73.90
49821;DHT22;36893;52.520;13.450;2023-02-28T16:30:30;20.70;73.80
49821;DHT22;36893;52.520;13.450;2023-02-28T16:40:35;20.70;73.80
49821;DHT22;36893;52.520;13.450;2023-02-28T16:50:36;20.80;73.90
49821;DHT22;36893;52.520;13.450;2023-02-28T17:00:36;20.80;73.90
49821;DHT22;36893;52.520;13.450;2023-02-28T17:10:37;20.80;73.90
49821;DHT22;36893;52.520;13.450;2023-02-28T17:20:37;20.80;73.90
49821;DHT22;36893;52.520;13.450;2023-02-28T17:30:38;20.80;73.90
49821;DHT22;36893;52.520;13.450;2023-02-28T17:40:40;21.00;74.00
49821;DHT22;36893;52.520;13.450;2023-02-28T17:50:41;21.10;73.90
49821;DHT22;36893;52.520;13.450;2023-02-28T18:00:42;21.20;73.90
49821;DHT22;36893;52.520;13.450;2023-02-28T18:10:43;21.20;74.20
49821;DHT22;36893;52.520;13.450;2023-02-28T18:20:44;21.30;74.30
49821;DHT22;36893;52.520;13.450;2023-02-28T18:30:45;21.50;74.40
49821;DHT22;36893;52.520;13.450;2023-02-28T18:40:54;21.50;74.70
49821;DHT22;36893;52.520;13.450;2023-02-28T18:50:56;21.50;75.10
49821;DHT22;36893;52.520;13.450;2023-02-28T19:00:57;21.40;75.30
49821;DHT22;36893;52.520;13.450;2023-02-28T19:10:57;21.50;75.20
49821;DHT22;36893;52.520;13.450;2023-02-28T19:20:58;21.60;75.00
49821;DHT22;36893;52.520;13.450;2023-02-28T19:30:59;21.60;75.00
49821;DHT22;36893;52.520;13.450;2023-02-28T19:41:01;21.70;75.00
49821;DHT22;36893;52.520;13.450;2023-02-28T19:51:04;21.60;75.10
49821;DHT22;36893;52.520;13.450;2023-02-28T20:01:17;21.60;75.20
49821;DHT22;36893;52.520;13.450;2023-02-28T20:11:18;21.70;75.10
49821;DHT22;36893;52.520;13.450;2023-02-28T20:21:19;21.80;74.90
49821;DHT22;36893;52.520;13.450;2023-02-28T20:31:23;21.80;74.80
49821;DHT22;36893;52.520;13.450;2023-02-28T20:41:24;21.80;74.90
49821;DHT22;36893;52.520;13.450;2023-02-28T20:51:25;21.80;74.70
49821;DHT22;36893;52.520;13.450;2023-02-28T21:01:27;21.90;74.70
49821;DHT22;36893;52.520;13.450;2023-02-28T21:11:31;21.90;75.00
49821;DHT22;36893;52.520;13.450;2023-02-28T21:21:38;21.90;74.50
49821;DHT22;36893;52.520;13.450;2023-02-28T21:31:43;21.80;74.50
49821;DHT22;36893;52.520;13.450;2023-02-28T21:41:44;21.90;74.40
49821;DHT22;36893;52.520;13.450;2023-02-28T21:51:45;22.00;74.30
49821;DHT22;36893;52.520;13.450;2023-02-28T22:01:48;22.00;74.10
49821;DHT22;36893;52.520;13.450;2023-02-28T22:11:50;22.00;74.90
49821;DHT22;36893;52.520;13.450;2023-02-28T22:21:51;22.00;74.00
49821;DHT22;36893;52.520;13.450;2023-02-28T22:31:52;22.10;73.80
49821;DHT22;36893;52.520;13.450;2023-02-28T22:41:54;22.10;73.50
49821;DHT22;36893;52.520;13.450;2023-02-28T22:51:55;22.20;73.40
49821;DHT22;36893;52.520;13.450;2023-02-28T23:01:56;22.20;73.20
49821;DHT22;36893;52.520;13.450;2023-02-28T23:11:56;22.20;73.00
49821;DHT22;36893;52.520;13.450;2023-02-28T23:21:58;22.30;72.90
49821;DHT22;36893;52.520;13.450;2023-02-28T23:32:00;22.30;72.60
49821;DHT22;36893;52.520;13.450;2023-02-28T23:42:00;22.40;72.50
49821;DHT22;36893;52.520;13.450;2023-02-28T23:52:01;22.40;73.20
